createdAt,value
2023-03-16T00:00:19.398Z,101410.75
2023-03-16T00:02:46.544Z,101404.72
2023-03-16T00:05:15.064Z,101409.34
2023-03-16T00:07:43.334Z,101411.69
2023-03-16T00:10:14.874Z,101407.66
2023-03-16T00:12:43.878Z,101412.91
2023-03-16T00:15:12.748Z,101412.03
2023-03-16T00:17:40.078Z,101414.94
2023-03-16T00:20:08.205Z,101414.22
2023-03-16T00:22:35.434Z,101409.69
2023-03-16T00:25:02.596Z,101416.16
2023-03-16T00:27:30.542Z,101421.75
2023-03-16T00:29:57.635Z,101419.69
2023-03-16T00:32:29.210Z,101406.59
2023-03-16T00:34:56.636Z,101417.72
2023-03-16T00:37:26.796Z,101418.28
2023-03-16T00:39:58.225Z,101421.50
2023-03-16T00:42:29.765Z,101422.50
2023-03-16T00:44:59.036Z,101422.56
2023-03-16T00:47:30.472Z,101429.31
2023-03-16T00:49:59.041Z,101424.75
2023-03-16T00:52:27.541Z,101431.00
2023-03-16T00:54:56.216Z,101432.69
2023-03-16T00:57:25.740Z,101437.66
2023-03-16T00:59:52.973Z,101435.38
2023-03-16T01:02:23.456Z,101438.44
2023-03-16T01:04:52.528Z,101434.38
2023-03-16T01:07:21.747Z,101442.91
2023-03-16T01:09:49.278Z,101437.19
2023-03-16T01:12:19.236Z,101433.53
2023-03-16T01:14:47.171Z,101434.50
2023-03-16T01:17:17.377Z,101435.38
2023-03-16T01:19:46.045Z,101431.06
2023-03-16T01:22:13.658Z,101435.34
2023-03-16T01:24:42.134Z,101439.75
2023-03-16T01:27:09.667Z,101428.16
2023-03-16T01:29:37.698Z,101435.22
2023-03-16T01:32:05.745Z,101432.63
2023-03-16T01:34:35.090Z,101432.00
2023-03-16T01:37:02.883Z,101425.66
2023-03-16T01:39:30.183Z,101433.94
2023-03-16T01:41:57.299Z,101428.63
2023-03-16T01:44:32.669Z,101428.47
2023-03-16T01:46:59.751Z,101433.94
2023-03-16T01:49:36.272Z,101433.03
2023-03-16T01:52:22.521Z,101437.41
2023-03-16T01:55:04.140Z,101437.19
2023-03-16T01:57:42.541Z,101438.78
2023-03-16T02:00:23.712Z,101427.88
2023-03-16T02:02:59.930Z,101436.28
2023-03-16T02:05:47.509Z,101423.78
2023-03-16T02:08:14.775Z,101423.81
2023-03-16T02:10:42.435Z,101433.66
2023-03-16T02:13:09.498Z,101435.22
2023-03-16T02:15:36.745Z,101419.53
2023-03-16T02:18:05.673Z,101432.75
2023-03-16T02:21:27.540Z,101426.97
2023-03-16T02:23:54.846Z,101427.72
2023-03-16T02:26:58.677Z,101418.56
2023-03-16T02:30:01.202Z,101426.81
2023-03-16T02:32:31.914Z,101425.59
2023-03-16T02:35:01.161Z,101427.59
2023-03-16T02:37:28.420Z,101423.56
2023-03-16T02:39:55.736Z,101426.88
2023-03-16T02:42:26.237Z,101436.13
2023-03-16T02:44:58.799Z,101442.88
2023-03-16T02:47:41.768Z,101432.75
2023-03-16T02:50:12.385Z,101432.63
2023-03-16T02:52:41.082Z,101432.94
2023-03-16T02:55:09.001Z,101439.72
2023-03-16T02:57:36.167Z,101442.91
2023-03-16T03:00:11.109Z,101444.91
2023-03-16T03:02:38.189Z,101443.41
2023-03-16T03:05:07.034Z,101442.00
2023-03-16T03:07:34.081Z,101448.81
2023-03-16T03:10:05.865Z,101448.88
2023-03-16T03:12:35.671Z,101453.47
2023-03-16T03:15:02.751Z,101455.91
2023-03-16T03:17:30.283Z,101452.88
2023-03-16T03:20:13.834Z,101458.97
2023-03-16T03:22:41.137Z,101468.38
2023-03-16T03:25:14.331Z,101468.97
2023-03-16T03:27:43.606Z,101466.59
2023-03-16T03:30:19.675Z,101466.50
2023-03-16T03:32:46.850Z,101463.72
2023-03-16T03:35:16.280Z,101462.44
2023-03-16T03:37:44.287Z,101467.50
2023-03-16T03:40:15.350Z,101467.19
2023-03-16T03:42:43.175Z,101468.66
2023-03-16T03:45:12.946Z,101465.38
2023-03-16T03:47:43.381Z,101467.38
2023-03-16T03:50:13.889Z,101460.41
2023-03-16T03:52:41.294Z,101467.06
2023-03-16T03:55:09.677Z,101460.69
2023-03-16T03:57:37.041Z,101461.72
2023-03-16T04:00:09.522Z,101461.53
2023-03-16T04:02:37.701Z,101468.22
2023-03-16T04:05:07.312Z,101471.31
2023-03-16T04:07:34.612Z,101466.19
2023-03-16T04:10:01.689Z,101461.91
2023-03-16T04:12:28.783Z,101459.13
2023-03-16T04:14:55.975Z,101462.47
2023-03-16T04:17:24.220Z,101461.78
2023-03-16T04:19:51.958Z,101464.81
2023-03-16T04:22:19.124Z,101457.00
2023-03-16T04:24:47.451Z,101460.19
2023-03-16T04:27:14.612Z,101461.03
2023-03-16T04:29:41.677Z,101466.00
2023-03-16T04:32:11.655Z,101463.69
2023-03-16T04:34:41.659Z,101469.16
2023-03-16T04:37:08.829Z,101469.97
2023-03-16T04:39:35.948Z,101471.41
2023-03-16T04:42:03.176Z,101467.25
2023-03-16T04:44:30.363Z,101476.81
2023-03-16T04:47:00.357Z,101482.56
2023-03-16T04:49:27.426Z,101483.56
2023-03-16T04:51:54.596Z,101480.97
2023-03-16T04:54:21.676Z,101478.97
2023-03-16T04:56:48.753Z,101486.69
2023-03-16T04:59:15.820Z,101485.94
2023-03-16T05:01:43.764Z,101478.72
2023-03-16T05:04:18.954Z,101487.44
2023-03-16T05:06:46.738Z,101487.72
2023-03-16T05:09:14.114Z,101490.97
2023-03-16T05:11:41.515Z,101490.47
2023-03-16T05:14:08.580Z,101494.19
2023-03-16T05:16:35.664Z,101494.03
2023-03-16T05:19:02.832Z,101497.25
2023-03-16T05:21:34.329Z,101494.34
2023-03-16T05:24:01.501Z,101499.69
2023-03-16T05:26:28.614Z,101495.72
2023-03-16T05:28:58.238Z,101497.81
2023-03-16T05:31:28.807Z,101502.22
2023-03-16T05:33:57.435Z,101502.97
2023-03-16T05:36:24.812Z,101501.97
2023-03-16T05:38:52.929Z,101516.59
2023-03-16T05:41:21.436Z,101506.19
2023-03-16T05:43:48.708Z,101505.16
2023-03-16T05:46:15.793Z,101513.81
2023-03-16T05:48:42.860Z,101518.78
2023-03-16T05:51:09.858Z,101515.25
2023-03-16T05:53:36.971Z,101518.50
2023-03-16T05:56:04.138Z,101521.53
2023-03-16T05:58:33.655Z,101526.75
2023-03-16T06:01:05.022Z,101526.38
2023-03-16T06:03:32.119Z,101530.25
2023-03-16T06:05:59.131Z,101534.53
2023-03-16T06:08:26.163Z,101531.75
2023-03-16T06:10:57.045Z,101525.56
2023-03-16T06:13:24.100Z,101525.31
2023-03-16T06:15:53.996Z,101532.66
2023-03-16T06:18:22.456Z,101541.19
2023-03-16T06:20:49.532Z,101543.25
2023-03-16T06:23:16.638Z,101547.03
2023-03-16T06:25:43.893Z,101551.41
2023-03-16T06:28:11.081Z,101537.66
2023-03-16T06:30:38.336Z,101539.50
2023-03-16T06:33:05.456Z,101542.00
2023-03-16T06:35:33.503Z,101546.31
2023-03-16T06:38:00.949Z,101549.66
2023-03-16T06:40:28.241Z,101556.31
2023-03-16T06:42:55.434Z,101557.53
2023-03-16T06:45:22.573Z,101556.25
2023-03-16T06:47:52.479Z,101557.22
2023-03-16T06:50:19.699Z,101559.94
2023-03-16T06:52:48.565Z,101567.13
2023-03-16T06:55:15.655Z,101570.25
2023-03-16T06:57:42.732Z,101568.00
2023-03-16T07:00:14.106Z,101569.59
2023-03-16T07:02:43.479Z,101578.53
2023-03-16T07:05:13.201Z,101573.06
2023-03-16T07:07:44.297Z,101577.47
2023-03-16T07:10:17.644Z,101580.69
2023-03-16T07:12:45.695Z,101578.94
2023-03-16T07:15:15.610Z,101590.31
2023-03-16T07:17:43.386Z,101594.34
2023-03-16T07:20:12.792Z,101593.50
2023-03-16T07:22:41.848Z,101592.84
2023-03-16T07:25:11.454Z,101593.38
2023-03-16T07:27:38.935Z,101598.69
2023-03-16T07:30:07.433Z,101596.03
2023-03-16T07:32:34.672Z,101607.81
2023-03-16T07:35:02.107Z,101616.50
2023-03-16T07:37:29.205Z,101620.41
2023-03-16T07:39:56.327Z,101623.69
2023-03-16T07:42:23.433Z,101618.50
2023-03-16T07:44:51.873Z,101620.25
2023-03-16T07:47:20.047Z,101625.31
2023-03-16T07:49:47.183Z,101614.94
2023-03-16T07:52:14.267Z,101616.56
2023-03-16T07:54:41.799Z,101610.50
2023-03-16T07:57:09.377Z,101609.19
2023-03-16T07:59:36.552Z,101614.06
2023-03-16T08:02:04.048Z,101618.97
2023-03-16T08:04:31.327Z,101623.34
2023-03-16T08:07:00.273Z,101623.00
2023-03-16T08:09:27.743Z,101623.47
2023-03-16T08:11:54.945Z,101626.09
2023-03-16T08:14:22.041Z,101626.34
2023-03-16T08:16:50.229Z,101614.25
2023-03-16T08:19:17.796Z,101618.13
2023-03-16T08:22:00.739Z,101621.22
2023-03-16T08:24:31.315Z,101615.59
2023-03-16T08:27:00.960Z,101622.78
2023-03-16T08:29:28.365Z,101620.88
2023-03-16T08:31:56.444Z,101616.84
2023-03-16T08:34:28.731Z,101616.03
2023-03-16T08:36:55.892Z,101623.13
2023-03-16T08:39:25.048Z,101621.06
2023-03-16T08:41:52.141Z,101625.41
2023-03-16T08:44:20.066Z,101628.06
2023-03-16T08:46:47.241Z,101629.19
2023-03-16T08:49:14.559Z,101632.53
2023-03-16T08:51:44.758Z,101633.03
2023-03-16T08:54:12.357Z,101631.19
2023-03-16T08:56:43.233Z,101636.78
2023-03-16T08:59:19.889Z,101644.38
2023-03-16T09:01:56.188Z,101639.22
2023-03-16T09:04:23.548Z,101645.41
2023-03-16T09:07:09.865Z,101638.00
2023-03-16T09:09:37.572Z,101636.22
2023-03-16T09:12:06.070Z,101637.75
2023-03-16T09:14:33.393Z,101642.66
2023-03-16T09:17:00.448Z,101640.34
2023-03-16T09:19:30.677Z,101639.69
2023-03-16T09:22:01.942Z,101636.78
2023-03-16T09:24:29.409Z,101634.53
2023-03-16T09:26:56.473Z,101635.88
2023-03-16T09:29:24.468Z,101636.25
2023-03-16T09:31:51.672Z,101636.25
2023-03-16T09:34:18.937Z,101642.53
2023-03-16T09:36:46.277Z,101636.09
2023-03-16T09:39:13.556Z,101642.47
2023-03-16T09:41:52.488Z,101646.38
2023-03-16T09:44:56.389Z,101649.19
2023-03-16T09:47:30.769Z,101649.09
2023-03-16T09:50:02.901Z,101652.28
2023-03-16T09:52:57.534Z,101653.81
2023-03-16T09:55:36.035Z,101650.25
2023-03-16T09:58:16.243Z,101652.91
2023-03-16T10:01:13.214Z,101658.00
2023-03-16T10:04:23.370Z,101657.94
2023-03-16T10:07:06.453Z,101648.03
2023-03-16T10:09:41.462Z,101653.03
2023-03-16T10:12:13.540Z,101649.25
2023-03-16T10:15:04.701Z,101642.00
2023-03-16T10:17:46.111Z,101646.72
2023-03-16T10:20:23.440Z,101643.75
2023-03-16T10:22:59.292Z,101647.06
2023-03-16T10:25:50.185Z,101642.41
2023-03-16T10:28:27.671Z,101639.38
2023-03-16T10:30:59.071Z,101644.13
2023-03-16T10:33:32.163Z,101642.03
2023-03-16T10:36:41.921Z,101635.53
2023-03-16T10:39:16.363Z,101632.91
2023-03-16T10:41:54.473Z,101624.41
2023-03-16T10:44:28.501Z,101627.38
2023-03-16T10:47:08.467Z,101626.84
2023-03-16T10:49:48.870Z,101627.78
2023-03-16T10:52:43.006Z,101629.47
2023-03-16T10:55:31.281Z,101633.34
2023-03-16T10:57:59.735Z,101624.09
2023-03-16T11:00:38.475Z,101619.84
2023-03-16T11:03:41.266Z,101632.84
2023-03-16T11:06:26.313Z,101626.63
2023-03-16T11:08:54.878Z,101625.56
2023-03-16T11:11:32.408Z,101620.59
2023-03-16T11:14:04.763Z,101618.69
2023-03-16T11:17:05.876Z,101619.59
2023-03-16T11:20:00.256Z,101619.09
2023-03-16T11:22:32.663Z,101610.88
2023-03-16T11:25:09.380Z,101609.94
2023-03-16T11:27:51.516Z,101611.94
2023-03-16T11:30:59.151Z,101606.22
2023-03-16T11:33:27.197Z,101604.47
2023-03-16T11:36:35.187Z,101607.56
2023-03-16T11:39:46.422Z,101611.66
2023-03-16T11:42:39.466Z,101601.72
2023-03-16T11:45:34.269Z,101594.53
2023-03-16T11:48:53.749Z,101591.56
2023-03-16T11:51:56.970Z,101588.09
2023-03-16T11:54:44.210Z,101587.38
2023-03-16T11:57:37.965Z,101590.03
2023-03-16T12:01:07.358Z,101586.28
2023-03-16T12:04:05.632Z,101584.56
2023-03-16T12:07:09.135Z,101574.91
2023-03-16T12:09:54.527Z,101576.34
2023-03-16T12:13:20.007Z,101572.97
2023-03-16T12:15:57.410Z,101560.41
2023-03-16T12:18:54.745Z,101564.72
2023-03-16T12:21:32.318Z,101561.13
2023-03-16T12:24:09.098Z,101561.25
2023-03-16T12:26:42.737Z,101556.50
2023-03-16T12:29:42.769Z,101552.25
2023-03-16T12:32:42.067Z,101551.44
2023-03-16T12:35:33.908Z,101545.66
2023-03-16T12:38:57.008Z,101539.66
2023-03-16T12:41:38.092Z,101546.44
2023-03-16T12:44:31.358Z,101540.72
2023-03-16T12:47:28.657Z,101535.38
2023-03-16T12:50:03.162Z,101540.56
2023-03-16T12:52:46.515Z,101531.69
2023-03-16T12:55:27.690Z,101529.75
2023-03-16T12:58:06.501Z,101517.81
2023-03-16T13:00:41.423Z,101522.50
2023-03-16T13:03:23.036Z,101523.25
2023-03-16T13:06:02.382Z,101518.88
2023-03-16T13:08:43.927Z,101512.75
2023-03-16T13:11:16.380Z,101509.69
2023-03-16T13:14:15.168Z,101520.00
2023-03-16T13:16:43.828Z,101508.09
2023-03-16T13:19:30.396Z,101510.31
2023-03-16T13:22:27.913Z,101505.88
2023-03-16T13:25:22.441Z,101498.13
2023-03-16T13:27:55.925Z,101503.88
2023-03-16T13:30:32.671Z,101503.09
2023-03-16T13:33:31.586Z,101511.22
2023-03-16T13:36:00.313Z,101504.38
2023-03-16T13:38:28.701Z,101508.09
2023-03-16T13:41:09.381Z,101512.66
2023-03-16T13:43:44.467Z,101506.69
2023-03-16T13:46:22.414Z,101508.94
2023-03-16T13:48:50.490Z,101500.38
2023-03-16T13:51:22.675Z,101508.78
2023-03-16T13:53:50.880Z,101501.25
2023-03-16T13:56:26.738Z,101494.13
2023-03-16T13:58:57.060Z,101487.53
2023-03-16T14:01:32.127Z,101494.63
2023-03-16T14:04:08.560Z,101483.75
2023-03-16T14:06:36.741Z,101472.56
2023-03-16T14:09:13.099Z,101473.69
2023-03-16T14:11:42.140Z,101470.44
2023-03-16T14:14:39.343Z,101475.75
2023-03-16T14:17:22.119Z,101467.06
2023-03-16T14:20:00.894Z,101470.09
2023-03-16T14:22:38.795Z,101480.78
2023-03-16T14:25:07.793Z,101465.81
2023-03-16T14:27:40.980Z,101468.31
2023-03-16T14:30:28.064Z,101461.53
2023-03-16T14:33:05.871Z,101462.84
2023-03-16T14:35:44.564Z,101464.81
2023-03-16T14:38:37.592Z,101452.66
2023-03-16T14:41:28.017Z,101450.13
2023-03-16T14:44:00.071Z,101443.69
2023-03-16T14:46:34.264Z,101439.31
2023-03-16T14:49:22.093Z,101432.31
2023-03-16T14:51:53.881Z,101428.88
2023-03-16T14:54:22.395Z,101427.69
2023-03-16T14:56:54.188Z,101430.25
2023-03-16T14:59:22.001Z,101423.75
2023-03-16T15:01:51.634Z,101420.44
2023-03-16T15:04:37.186Z,101422.16
2023-03-16T15:07:37.980Z,101420.63
2023-03-16T15:10:26.863Z,101421.81
2023-03-16T15:12:54.619Z,101422.34
2023-03-16T15:15:24.092Z,101410.94
2023-03-16T15:17:53.706Z,101408.22
2023-03-16T15:20:39.521Z,101407.88
2023-03-16T15:23:11.364Z,101401.03
2023-03-16T15:25:43.069Z,101393.00
2023-03-16T15:28:21.331Z,101404.47
2023-03-16T15:30:54.801Z,101408.50
2023-03-16T15:33:22.895Z,101402.31
2023-03-16T15:36:02.863Z,101399.94
2023-03-16T15:38:39.690Z,101410.34
2023-03-16T15:41:11.755Z,101404.00
2023-03-16T15:43:39.500Z,101398.72
2023-03-16T15:46:06.877Z,101391.22
2023-03-16T15:48:34.354Z,101402.75
2023-03-16T15:51:28.166Z,101396.84
2023-03-16T15:53:59.879Z,101393.72
2023-03-16T15:56:36.605Z,101382.19
2023-03-16T15:59:18.765Z,101379.97
2023-03-16T16:01:48.439Z,101388.41
2023-03-16T16:04:20.604Z,101386.03
2023-03-16T16:06:49.425Z,101379.59
2023-03-16T16:09:16.531Z,101375.72
2023-03-16T16:11:44.160Z,101382.16
2023-03-16T16:14:19.278Z,101382.84
2023-03-16T16:16:46.606Z,101386.59
2023-03-16T16:19:18.768Z,101376.38
2023-03-16T16:21:47.431Z,101386.56
2023-03-16T16:24:15.594Z,101379.56
2023-03-16T16:26:59.043Z,101382.78
2023-03-16T16:29:32.103Z,101378.44
2023-03-16T16:32:00.025Z,101379.16
2023-03-16T16:34:28.003Z,101384.91
2023-03-16T16:36:57.138Z,101377.81
2023-03-16T16:39:27.619Z,101388.41
2023-03-16T16:41:56.406Z,101389.41
2023-03-16T16:44:33.843Z,101383.28
2023-03-16T16:47:04.739Z,101384.31
2023-03-16T16:49:35.055Z,101382.00
2023-03-16T16:52:02.481Z,101389.81
2023-03-16T16:54:31.960Z,101378.63
2023-03-16T16:57:01.593Z,101378.16
2023-03-16T16:59:37.056Z,101374.22
2023-03-16T17:02:28.239Z,101376.91
2023-03-16T17:04:55.464Z,101374.63
2023-03-16T17:07:22.917Z,101370.31
2023-03-16T17:09:50.803Z,101369.78
2023-03-16T17:12:22.815Z,101371.53
2023-03-16T17:14:51.081Z,101376.16
2023-03-16T17:17:18.982Z,101376.41
2023-03-16T17:19:51.565Z,101376.88
2023-03-16T17:22:28.175Z,101376.28
2023-03-16T17:24:55.300Z,101375.38
2023-03-16T17:27:31.587Z,101385.00
2023-03-16T17:29:59.239Z,101380.19
2023-03-16T17:32:26.469Z,101391.63
2023-03-16T17:34:53.625Z,101387.75
2023-03-16T17:37:23.174Z,101386.53
2023-03-16T17:39:51.195Z,101381.78
2023-03-16T17:42:20.373Z,101381.16
2023-03-16T17:44:52.967Z,101390.78
2023-03-16T17:47:31.145Z,101382.34
2023-03-16T17:49:59.365Z,101393.13
2023-03-16T17:52:29.716Z,101389.13
2023-03-16T17:54:57.192Z,101402.16
2023-03-16T17:57:34.083Z,101392.34
2023-03-16T18:00:08.898Z,101393.50
2023-03-16T18:02:40.083Z,101388.78
2023-03-16T18:05:20.931Z,101383.03
2023-03-16T18:07:49.041Z,101377.34
2023-03-16T18:10:29.496Z,101363.88
2023-03-16T18:13:26.843Z,101367.16
2023-03-16T18:15:55.817Z,101375.78
2023-03-16T18:18:27.636Z,101372.06
2023-03-16T18:20:56.953Z,101381.78
2023-03-16T18:23:29.729Z,101379.47
2023-03-16T18:26:03.853Z,101375.44
2023-03-16T18:28:33.245Z,101377.44
2023-03-16T18:31:03.619Z,101371.69
2023-03-16T18:33:39.133Z,101365.03
2023-03-16T18:36:16.222Z,101365.19
2023-03-16T18:38:48.423Z,101361.31
2023-03-16T18:41:24.313Z,101359.06
2023-03-16T18:43:56.467Z,101355.44
2023-03-16T18:46:37.206Z,101358.97
2023-03-16T18:49:32.964Z,101356.84
2023-03-16T18:52:00.151Z,101355.28
2023-03-16T18:54:36.736Z,101347.31
2023-03-16T18:57:14.270Z,101341.84
2023-03-16T18:59:41.341Z,101353.19
2023-03-16T19:02:39.216Z,101349.75
2023-03-16T19:05:23.365Z,101340.63
2023-03-16T19:07:54.581Z,101344.13
2023-03-16T19:10:26.271Z,101350.00
2023-03-16T19:12:54.174Z,101344.19
2023-03-16T19:15:29.248Z,101352.50
2023-03-16T19:17:57.938Z,101339.69
2023-03-16T19:20:32.503Z,101345.09
2023-03-16T19:23:28.560Z,101335.38
2023-03-16T19:25:57.804Z,101336.31
2023-03-16T19:28:39.721Z,101335.34
2023-03-16T19:31:27.552Z,101337.50
2023-03-16T19:33:55.343Z,101336.72
2023-03-16T19:36:31.191Z,101337.28
2023-03-16T19:38:59.370Z,101346.16
2023-03-16T19:41:37.479Z,101344.19
2023-03-16T19:44:27.238Z,101352.88
2023-03-16T19:46:55.208Z,101352.44
2023-03-16T19:49:27.378Z,101351.97
2023-03-16T19:51:56.237Z,101327.56
2023-03-16T19:54:33.402Z,101326.28
2023-03-16T19:57:12.276Z,101318.06
2023-03-16T19:59:43.574Z,101324.22
2023-03-16T20:02:38.197Z,101335.06
2023-03-16T20:05:07.718Z,101344.25
2023-03-16T20:07:37.989Z,101344.00
2023-03-16T20:10:07.002Z,101338.94
2023-03-16T20:12:36.884Z,101336.69
2023-03-16T20:15:04.091Z,101337.72
2023-03-16T20:17:33.818Z,101336.38
2023-03-16T20:20:01.211Z,101330.41
2023-03-16T20:22:29.042Z,101332.91
2023-03-16T20:24:57.950Z,101318.16
2023-03-16T20:27:27.662Z,101321.03
2023-03-16T20:29:55.671Z,101329.22
2023-03-16T20:32:34.964Z,101323.59
2023-03-16T20:35:02.046Z,101333.84
2023-03-16T20:37:31.161Z,101325.56
2023-03-16T20:39:59.138Z,101321.56
2023-03-16T20:42:35.038Z,101321.28
2023-03-16T20:45:02.369Z,101322.97
2023-03-16T20:47:29.479Z,101313.69
2023-03-16T20:50:00.118Z,101315.63
2023-03-16T20:52:30.804Z,101320.44
2023-03-16T20:54:58.649Z,101317.59
2023-03-16T20:57:29.568Z,101318.41
2023-03-16T20:59:56.979Z,101324.03
2023-03-16T21:02:35.139Z,101322.28
2023-03-16T21:05:06.816Z,101322.44
2023-03-16T21:07:35.016Z,101325.00
2023-03-16T21:10:02.319Z,101311.19
2023-03-16T21:12:38.019Z,101309.59
2023-03-16T21:15:32.302Z,101313.09
2023-03-16T21:18:07.853Z,101302.56
2023-03-16T21:20:36.572Z,101296.72
2023-03-16T21:23:04.031Z,101299.44
2023-03-16T21:25:45.478Z,101295.22
2023-03-16T21:28:13.364Z,101293.88
2023-03-16T21:30:50.202Z,101296.25
2023-03-16T21:33:19.582Z,101291.19
2023-03-16T21:35:47.098Z,101282.44
2023-03-16T21:38:19.487Z,101281.19
2023-03-16T21:40:48.793Z,101275.69
2023-03-16T21:43:16.626Z,101272.69
2023-03-16T21:45:46.023Z,101257.44
2023-03-16T21:48:24.780Z,101255.38
2023-03-16T21:50:53.729Z,101262.94
2023-03-16T21:53:34.388Z,101265.69
2023-03-16T21:56:01.573Z,101257.63
2023-03-16T21:58:28.606Z,101251.50
2023-03-16T22:00:58.190Z,101255.16
2023-03-16T22:03:50.623Z,101248.47
2023-03-16T22:06:18.825Z,101241.38
2023-03-16T22:08:51.076Z,101242.28
2023-03-16T22:11:23.827Z,101231.41
2023-03-16T22:13:55.087Z,101223.84
2023-03-16T22:16:31.663Z,101231.25
2023-03-16T22:18:59.030Z,101222.31
2023-03-16T22:21:41.132Z,101217.75
2023-03-16T22:24:28.152Z,101216.78
2023-03-16T22:26:55.427Z,101207.63
2023-03-16T22:29:35.706Z,101214.34
2023-03-16T22:32:12.300Z,101207.00
2023-03-16T22:34:51.174Z,101221.31
2023-03-16T22:37:28.478Z,101228.59
2023-03-16T22:39:58.300Z,101219.56
2023-03-16T22:42:36.988Z,101208.44
2023-03-16T22:45:22.104Z,101201.25
2023-03-16T22:47:49.539Z,101209.44
2023-03-16T22:50:19.552Z,101213.41
2023-03-16T22:52:51.167Z,101196.28
2023-03-16T22:55:32.322Z,101197.44
2023-03-16T22:58:30.961Z,101195.28
2023-03-16T23:01:00.439Z,101187.78
2023-03-16T23:03:28.091Z,101189.66
2023-03-16T23:05:55.693Z,101188.34
2023-03-16T23:08:26.399Z,101175.81
2023-03-16T23:10:53.613Z,101178.97
2023-03-16T23:13:24.564Z,101191.25
2023-03-16T23:15:53.448Z,101188.88
2023-03-16T23:18:26.149Z,101194.22
2023-03-16T23:20:53.861Z,101183.78
2023-03-16T23:23:21.263Z,101176.16
2023-03-16T23:25:48.694Z,101179.22
2023-03-16T23:28:24.460Z,101170.63
2023-03-16T23:30:51.643Z,101170.22
2023-03-16T23:33:18.699Z,101173.59
2023-03-16T23:35:46.713Z,101174.81
2023-03-16T23:38:14.110Z,101180.06
2023-03-16T23:40:41.463Z,101173.22
2023-03-16T23:43:09.253Z,101174.47
2023-03-16T23:45:42.354Z,101161.16
2023-03-16T23:48:19.273Z,101159.25
2023-03-16T23:50:52.025Z,101163.50
2023-03-16T23:53:21.174Z,101153.34
2023-03-16T23:55:48.559Z,101151.03
2023-03-16T23:58:16.501Z,101150.44
